createdAt,value
2022-11-04T00:00:12.470Z,4.00
2022-11-04T00:02:44.265Z,4.00
2022-11-04T00:05:16.108Z,4.00
2022-11-04T00:08:06.291Z,4.00
2022-11-04T00:10:56.422Z,4.00
2022-11-04T00:13:31.224Z,4.00
2022-11-04T00:16:21.387Z,4.10
2022-11-04T00:18:53.225Z,4.10
2022-11-04T00:21:43.689Z,4.20
2022-11-04T00:24:34.180Z,4.20
2022-11-04T00:27:24.301Z,4.30
2022-11-04T00:30:00.700Z,4.30
2022-11-04T00:32:51.282Z,4.30
2022-11-04T00:35:23.213Z,4.40
2022-11-04T00:37:54.953Z,4.40
2022-11-04T00:40:26.707Z,4.50
2022-11-04T00:43:03.485Z,4.50
2022-11-04T00:45:35.193Z,4.50
2022-11-04T00:48:07.362Z,4.50
2022-11-04T00:50:39.732Z,4.50
2022-11-04T00:53:11.664Z,4.60
2022-11-04T00:55:43.639Z,4.60
2022-11-04T00:58:15.468Z,4.50
2022-11-04T01:00:47.170Z,4.60
2022-11-04T01:03:18.884Z,4.60
2022-11-04T01:05:50.572Z,4.60
2022-11-04T01:08:22.308Z,4.60
2022-11-04T01:10:54.133Z,4.70
2022-11-04T01:13:25.930Z,4.70
2022-11-04T01:15:58.508Z,4.70
2022-11-04T01:18:30.300Z,4.70
2022-11-04T01:21:02.668Z,4.70
2022-11-04T01:23:35.214Z,4.70
2022-11-04T01:26:17.815Z,4.70
2022-11-04T01:28:49.995Z,4.80
2022-11-04T01:31:27.582Z,4.80
2022-11-04T01:33:59.670Z,4.90
2022-11-04T01:36:33.863Z,4.90
2022-11-04T01:39:05.946Z,5.00
2022-11-04T01:41:37.685Z,5.00
2022-11-04T01:44:28.147Z,5.00
2022-11-04T01:46:59.890Z,5.00
2022-11-04T01:49:39.187Z,5.00
2022-11-04T01:52:16.544Z,5.00
2022-11-04T01:54:49.502Z,5.00
2022-11-04T01:57:25.187Z,5.00
2022-11-04T01:59:58.585Z,5.00
2022-11-04T02:02:30.736Z,5.00
2022-11-04T02:05:05.040Z,5.00
2022-11-04T02:07:38.869Z,5.00
2022-11-04T02:10:11.096Z,5.00
2022-11-04T02:12:54.334Z,5.10
2022-11-04T02:15:38.535Z,5.00
2022-11-04T02:18:15.980Z,5.00
2022-11-04T02:20:47.719Z,5.00
2022-11-04T02:23:31.420Z,5.10
2022-11-04T02:26:21.918Z,5.10
2022-11-04T02:29:12.680Z,5.10
2022-11-04T02:32:00.033Z,5.10
2022-11-04T02:34:44.954Z,5.20
2022-11-04T02:37:19.405Z,5.20
2022-11-04T02:39:59.937Z,5.20
2022-11-04T02:42:37.468Z,5.20
2022-11-04T02:45:15.181Z,5.30
2022-11-04T02:47:50.798Z,5.30
2022-11-04T02:50:40.280Z,5.30
2022-11-04T02:53:17.462Z,5.30
2022-11-04T02:55:51.107Z,5.30
2022-11-04T02:58:25.938Z,5.40
2022-11-04T03:00:59.849Z,5.40
2022-11-04T03:03:34.431Z,5.40
2022-11-04T03:06:10.378Z,5.40
2022-11-04T03:08:46.379Z,5.40
2022-11-04T03:11:19.810Z,5.50
2022-11-04T03:14:00.810Z,5.40
2022-11-04T03:16:38.509Z,5.40
2022-11-04T03:19:16.239Z,5.50
2022-11-04T03:22:14.509Z,5.50
2022-11-04T03:24:49.647Z,5.50
2022-11-04T03:27:39.847Z,5.50
2022-11-04T03:30:12.008Z,5.50
2022-11-04T03:33:06.075Z,5.50
2022-11-04T03:35:40.567Z,5.50
2022-11-04T03:38:12.460Z,5.60
2022-11-04T03:40:44.212Z,5.60
2022-11-04T03:43:18.501Z,5.60
2022-11-04T03:45:50.950Z,5.60
2022-11-04T03:48:23.434Z,5.60
2022-11-04T03:50:55.179Z,5.70
2022-11-04T03:53:28.444Z,5.70
2022-11-04T03:56:25.936Z,5.70
2022-11-04T03:58:58.410Z,5.70
2022-11-04T04:01:49.078Z,5.70
2022-11-04T04:04:28.782Z,5.80
2022-11-04T04:07:12.819Z,5.80
2022-11-04T04:09:45.957Z,5.80
2022-11-04T04:12:26.015Z,5.80
2022-11-04T04:15:03.038Z,5.80
2022-11-04T04:17:37.443Z,5.80
2022-11-04T04:20:14.473Z,5.80
2022-11-04T04:22:49.099Z,5.80
2022-11-04T04:25:40.489Z,5.80
2022-11-04T04:28:14.185Z,5.80
2022-11-04T04:30:48.657Z,5.80
2022-11-04T04:33:20.424Z,5.90
2022-11-04T04:35:56.597Z,5.90
2022-11-04T04:38:48.109Z,5.80
2022-11-04T04:42:04.653Z,5.90
2022-11-04T04:44:54.975Z,6.00
2022-11-04T04:47:31.147Z,5.90
2022-11-04T04:50:03.029Z,6.00
2022-11-04T04:52:40.184Z,6.10
2022-11-04T04:55:12.458Z,6.10
2022-11-04T04:57:44.295Z,6.10
2022-11-04T05:00:17.231Z,6.10
2022-11-04T05:02:49.141Z,6.20
2022-11-04T05:05:21.223Z,6.10
2022-11-04T05:07:55.413Z,6.20
2022-11-04T05:10:27.168Z,6.20
2022-11-04T05:13:18.040Z,6.20
2022-11-04T05:15:51.996Z,6.20
2022-11-04T05:18:23.886Z,6.20
2022-11-04T05:20:55.603Z,6.30
2022-11-04T05:23:27.508Z,6.30
2022-11-04T05:25:59.306Z,6.30
2022-11-04T05:28:31.296Z,6.40
2022-11-04T05:31:04.560Z,6.40
2022-11-04T05:33:36.349Z,6.40
2022-11-04T05:36:14.426Z,6.40
2022-11-04T05:38:52.692Z,6.40
2022-11-04T05:41:27.163Z,6.40
2022-11-04T05:43:59.975Z,6.40
2022-11-04T05:46:31.864Z,6.40
2022-11-04T05:49:03.855Z,6.50
2022-11-04T05:51:38.198Z,6.50
2022-11-04T05:54:10.007Z,6.50
2022-11-04T05:56:41.758Z,6.50
2022-11-04T05:59:13.487Z,6.50
2022-11-04T06:01:45.790Z,6.50
2022-11-04T06:04:18.789Z,6.50
2022-11-04T06:06:55.436Z,6.60
2022-11-04T06:09:39.151Z,6.50
2022-11-04T06:12:12.367Z,6.60
2022-11-04T06:14:44.429Z,6.60
2022-11-04T06:17:19.078Z,6.50
2022-11-04T06:19:53.281Z,6.50
2022-11-04T06:22:25.027Z,6.50
2022-11-04T06:24:56.832Z,6.50
2022-11-04T06:27:28.542Z,6.50
2022-11-04T06:30:00.361Z,6.60
2022-11-04T06:32:32.113Z,6.60
2022-11-04T06:35:03.988Z,6.60
2022-11-04T06:37:35.734Z,6.70
2022-11-04T06:40:08.273Z,6.70
2022-11-04T06:42:40.319Z,6.80
2022-11-04T06:45:12.143Z,6.90
2022-11-04T06:47:43.965Z,7.00
2022-11-04T06:50:15.782Z,7.10
2022-11-04T06:52:50.039Z,7.20
2022-11-04T06:55:26.471Z,7.30
2022-11-04T06:57:58.188Z,7.30
2022-11-04T07:00:30.069Z,7.30
2022-11-04T07:03:01.893Z,7.30
2022-11-04T07:05:34.261Z,7.30
2022-11-04T07:08:08.396Z,7.30
2022-11-04T07:10:40.507Z,7.30
2022-11-04T07:13:12.228Z,7.30
2022-11-04T07:15:44.143Z,7.30
2022-11-04T07:18:15.919Z,7.30
2022-11-04T07:20:49.899Z,7.30
2022-11-04T07:23:22.040Z,7.30
2022-11-04T07:25:56.637Z,7.30
2022-11-04T07:28:28.454Z,7.40
2022-11-04T07:31:00.961Z,7.40
2022-11-04T07:33:33.959Z,7.40
2022-11-04T07:36:07.281Z,7.40
2022-11-04T07:38:39.002Z,7.50
2022-11-04T07:41:11.153Z,7.50
2022-11-04T07:43:42.897Z,7.60
2022-11-04T07:46:14.901Z,7.60
2022-11-04T07:48:47.194Z,7.70
2022-11-04T07:51:20.490Z,7.80
2022-11-04T07:53:52.242Z,7.90
2022-11-04T07:56:24.507Z,7.90
2022-11-04T07:58:56.207Z,7.90
2022-11-04T08:01:27.985Z,7.90
2022-11-04T08:03:59.743Z,7.90
2022-11-04T08:06:32.043Z,8.00
2022-11-04T08:09:05.070Z,8.00
2022-11-04T08:11:39.227Z,8.10
2022-11-04T08:14:11.029Z,8.10
2022-11-04T08:16:42.835Z,8.20
2022-11-04T08:19:16.997Z,8.20
2022-11-04T08:21:48.814Z,8.30
2022-11-04T08:24:20.852Z,8.30
2022-11-04T08:26:52.717Z,8.40
2022-11-04T08:29:24.866Z,8.50
2022-11-04T08:31:56.669Z,8.60
2022-11-04T08:34:28.371Z,8.80
2022-11-04T08:37:02.470Z,8.90
2022-11-04T08:39:34.460Z,9.00
2022-11-04T08:42:06.785Z,9.00
2022-11-04T08:44:39.902Z,9.10
2022-11-04T08:47:11.705Z,9.10
2022-11-04T08:49:45.610Z,9.30
2022-11-04T08:52:18.088Z,9.40
2022-11-04T08:54:54.712Z,9.50
2022-11-04T08:57:31.414Z,9.60
2022-11-04T09:00:04.160Z,9.60
2022-11-04T09:02:38.434Z,9.80
2022-11-04T09:05:10.162Z,9.80
2022-11-04T09:07:42.966Z,9.80
2022-11-04T09:10:14.962Z,9.90
2022-11-04T09:12:46.853Z,9.90
2022-11-04T09:15:18.620Z,9.90
2022-11-04T09:17:50.336Z,10.00
2022-11-04T09:20:24.382Z,10.00
2022-11-04T09:22:56.270Z,10.00
2022-11-04T09:25:29.851Z,10.00
2022-11-04T09:28:01.796Z,9.90
2022-11-04T09:30:33.683Z,9.80
2022-11-04T09:33:05.481Z,9.80
2022-11-04T09:35:40.068Z,9.80
2022-11-04T09:38:11.832Z,9.80
2022-11-04T09:40:43.629Z,9.80
2022-11-04T09:43:20.850Z,9.90
2022-11-04T09:45:52.573Z,10.00
2022-11-04T09:48:33.941Z,10.10
2022-11-04T09:51:09.962Z,10.20
2022-11-04T09:53:44.725Z,10.40
2022-11-04T09:56:18.552Z,10.40
2022-11-04T09:58:51.087Z,10.30
2022-11-04T10:01:33.257Z,10.30
2022-11-04T10:04:21.233Z,10.20
2022-11-04T10:07:11.696Z,10.20
2022-11-04T10:09:52.395Z,10.20
2022-11-04T10:12:42.787Z,10.20
2022-11-04T10:15:33.106Z,10.20
2022-11-04T10:18:29.526Z,10.20
2022-11-04T10:21:12.671Z,10.20
2022-11-04T10:23:46.126Z,10.10
2022-11-04T10:26:20.843Z,10.00
2022-11-04T10:28:55.584Z,10.00
2022-11-04T10:31:31.282Z,10.00
2022-11-04T10:34:09.132Z,10.20
2022-11-04T10:36:41.072Z,10.40
2022-11-04T10:39:17.749Z,10.40
2022-11-04T10:41:49.488Z,10.50
2022-11-04T10:44:26.134Z,10.40
2022-11-04T10:47:16.114Z,10.40
2022-11-04T10:50:13.932Z,10.30
2022-11-04T10:52:41.971Z,10.30
2022-11-04T10:55:32.176Z,10.20
2022-11-04T10:58:12.684Z,10.20
2022-11-04T11:00:44.475Z,10.20
2022-11-04T11:03:24.077Z,10.20
2022-11-04T11:06:12.880Z,10.10
2022-11-04T11:08:44.898Z,10.00
2022-11-04T11:11:17.066Z,10.00
2022-11-04T11:13:48.885Z,10.00
2022-11-04T11:16:28.233Z,10.10
2022-11-04T11:19:12.227Z,10.20
2022-11-04T11:21:45.476Z,10.30
2022-11-04T11:24:30.985Z,10.30
2022-11-04T11:27:11.775Z,10.30
2022-11-04T11:29:45.846Z,10.30
2022-11-04T11:32:31.689Z,10.40
2022-11-04T11:35:10.704Z,10.40
2022-11-04T11:37:47.882Z,10.40
2022-11-04T11:40:51.923Z,10.40
2022-11-04T11:43:32.196Z,10.40
2022-11-04T11:46:04.070Z,10.40
2022-11-04T11:48:38.584Z,10.40
2022-11-04T11:51:14.229Z,10.40
2022-11-04T11:54:13.298Z,10.40
2022-11-04T12:02:37.330Z,10.50
2022-11-04T12:11:03.628Z,10.80
2022-11-04T12:13:43.685Z,11.00
2022-11-04T12:16:28.940Z,11.10
2022-11-04T12:19:04.578Z,11.10
2022-11-04T12:21:40.747Z,11.20
2022-11-04T12:24:18.679Z,11.10
2022-11-04T12:26:50.385Z,11.10
2022-11-04T12:29:27.678Z,11.10
2022-11-04T12:32:14.687Z,10.90
2022-11-04T12:34:52.535Z,10.90
2022-11-04T12:37:24.227Z,10.80
2022-11-04T12:40:14.868Z,10.80
2022-11-04T12:42:55.549Z,10.70
2022-11-04T12:45:41.205Z,10.70
2022-11-04T12:48:24.949Z,10.60
2022-11-04T12:51:08.128Z,10.50
2022-11-04T12:53:49.100Z,10.40
2022-11-04T12:56:24.326Z,10.30
2022-11-04T12:59:14.512Z,10.30
2022-11-04T13:01:52.370Z,10.20
2022-11-04T13:04:26.361Z,10.20
2022-11-04T13:07:08.541Z,10.30
2022-11-04T13:10:00.560Z,10.20
2022-11-04T13:12:38.495Z,10.20
2022-11-04T13:15:15.564Z,10.10
2022-11-04T13:17:49.354Z,10.10
2022-11-04T13:20:26.785Z,10.20
2022-11-04T13:23:03.302Z,10.20
2022-11-04T13:25:39.712Z,10.20
2022-11-04T13:28:13.524Z,10.10
2022-11-04T13:30:55.064Z,10.10
2022-11-04T13:33:45.779Z,10.10
2022-11-04T13:36:20.276Z,10.10
2022-11-04T13:38:55.041Z,10.10
2022-11-04T13:42:02.546Z,10.10
2022-11-04T13:44:42.584Z,10.10
2022-11-04T13:47:21.923Z,10.10
2022-11-04T13:49:55.620Z,10.00
2022-11-04T13:52:33.258Z,10.00
2022-11-04T13:55:06.894Z,10.00
2022-11-04T13:57:57.416Z,9.90
2022-11-04T14:00:33.028Z,9.90
2022-11-04T14:03:34.123Z,9.90
2022-11-04T14:06:10.875Z,9.90
2022-11-04T14:09:02.554Z,9.90
2022-11-04T14:11:54.231Z,9.80
2022-11-04T14:14:25.987Z,9.80
2022-11-04T14:17:01.399Z,9.80
2022-11-04T14:19:48.509Z,9.70
2022-11-04T14:22:20.271Z,9.70
2022-11-04T14:24:54.806Z,9.60
2022-11-04T14:27:30.564Z,9.50
2022-11-04T14:30:05.271Z,9.50
2022-11-04T14:32:39.781Z,9.40
2022-11-04T14:35:17.477Z,9.40
2022-11-04T14:37:55.787Z,9.40
2022-11-04T14:40:29.407Z,9.30
2022-11-04T14:43:01.845Z,9.30
2022-11-04T14:45:38.986Z,9.30
2022-11-04T14:48:18.713Z,9.20
2022-11-04T14:50:51.744Z,9.20
2022-11-04T14:53:33.802Z,9.10
2022-11-04T14:56:05.626Z,9.10
2022-11-04T14:58:37.430Z,9.10
2022-11-04T15:01:15.759Z,9.00
2022-11-04T15:06:54.114Z,9.00
2022-11-04T15:09:28.524Z,9.00
2022-11-04T15:12:39.303Z,9.00
2022-11-04T15:15:40.367Z,8.90
2022-11-04T15:18:14.338Z,8.90
2022-11-04T15:20:50.491Z,8.90
2022-11-04T15:23:31.225Z,8.90
2022-11-04T15:26:04.322Z,8.90
2022-11-04T15:28:44.099Z,8.80
2022-11-04T15:31:20.645Z,8.80
2022-11-04T15:33:54.086Z,8.80
2022-11-04T15:36:25.792Z,8.80
2022-11-04T15:38:59.094Z,8.70
2022-11-04T15:41:50.014Z,8.70
2022-11-04T15:44:23.523Z,8.70
2022-11-04T15:46:56.539Z,8.60
2022-11-04T15:49:29.181Z,8.60
2022-11-04T15:52:04.697Z,8.60
2022-11-04T15:54:37.757Z,8.60
2022-11-04T15:57:24.216Z,8.60
2022-11-04T16:00:01.554Z,8.70
2022-11-04T16:02:38.714Z,8.70
2022-11-04T16:05:10.734Z,8.70
2022-11-04T16:07:42.483Z,8.80
2022-11-04T16:10:31.612Z,8.70
2022-11-04T16:13:20.373Z,8.80
2022-11-04T16:16:13.576Z,8.80
2022-11-04T16:18:50.706Z,8.80
2022-11-04T16:21:26.963Z,8.90
2022-11-04T16:24:04.770Z,8.80
2022-11-04T16:26:44.649Z,8.90
2022-11-04T16:29:16.681Z,8.90
2022-11-04T16:32:07.640Z,8.90
2022-11-04T16:34:39.418Z,8.90
2022-11-04T16:37:11.600Z,8.90
2022-11-04T16:39:45.808Z,8.90
2022-11-04T16:42:18.109Z,8.90
2022-11-04T16:44:58.385Z,8.90
2022-11-04T16:47:30.895Z,8.90
2022-11-04T16:50:02.633Z,8.90
2022-11-04T16:52:34.329Z,8.90
2022-11-04T16:55:06.436Z,8.90
2022-11-04T16:57:38.205Z,8.90
2022-11-04T17:00:16.997Z,8.90
2022-11-04T17:02:49.686Z,8.90
2022-11-04T17:05:21.467Z,8.90
2022-11-04T17:08:03.112Z,8.90
2022-11-04T17:10:36.483Z,8.90
2022-11-04T17:13:08.511Z,8.90
2022-11-04T17:15:40.981Z,8.90
2022-11-04T17:18:16.910Z,8.90
2022-11-04T17:20:50.755Z,8.90
2022-11-04T17:23:22.447Z,8.90
2022-11-04T17:25:54.213Z,8.90
2022-11-04T17:28:27.074Z,8.90
2022-11-04T17:30:59.038Z,8.90
2022-11-04T17:33:30.813Z,8.90
2022-11-04T17:36:07.508Z,8.80
2022-11-04T17:38:39.636Z,8.80
2022-11-04T17:41:30.145Z,8.80
2022-11-04T17:44:05.181Z,8.80
2022-11-04T17:46:41.767Z,8.70
2022-11-04T17:49:14.648Z,8.70
2022-11-04T17:52:04.725Z,8.70
2022-11-04T17:54:38.907Z,8.70
2022-11-04T17:57:10.652Z,8.70
2022-11-04T17:59:43.092Z,8.60
2022-11-04T18:02:17.615Z,8.60
2022-11-04T18:04:49.421Z,8.60
2022-11-04T18:07:21.204Z,8.50
2022-11-04T18:09:52.898Z,8.50
2022-11-04T18:12:37.194Z,8.50
2022-11-04T18:15:10.503Z,8.50
2022-11-04T18:17:43.390Z,8.50
2022-11-04T18:20:15.517Z,8.50
2022-11-04T18:22:47.566Z,8.50
2022-11-04T18:25:19.415Z,8.50
2022-11-04T18:27:51.230Z,8.50
2022-11-04T18:30:23.216Z,8.50
2022-11-04T18:32:55.096Z,8.50
2022-11-04T18:35:26.835Z,8.50
2022-11-04T18:37:58.655Z,8.50
2022-11-04T18:40:30.757Z,8.50
2022-11-04T18:43:08.513Z,8.50
2022-11-04T18:45:41.169Z,8.50
2022-11-04T18:48:13.189Z,8.50
2022-11-04T18:50:48.366Z,8.50
2022-11-04T18:53:24.374Z,8.50
2022-11-04T18:56:08.343Z,8.50
2022-11-04T18:58:43.067Z,8.50
2022-11-04T19:01:14.981Z,8.50
2022-11-04T19:03:47.289Z,8.50
2022-11-04T19:06:21.033Z,8.50
2022-11-04T19:08:56.219Z,8.50
2022-11-04T19:11:32.575Z,8.50
2022-11-04T19:14:09.349Z,8.50
2022-11-04T19:16:44.426Z,8.50
2022-11-04T19:19:16.723Z,8.50
2022-11-04T19:21:49.707Z,8.50
2022-11-04T19:24:21.570Z,8.40
2022-11-04T19:26:53.410Z,8.50
2022-11-04T19:29:26.112Z,8.50
2022-11-04T19:32:00.172Z,8.50
2022-11-04T19:34:32.067Z,8.50
2022-11-04T19:37:03.876Z,8.50
2022-11-04T19:39:35.697Z,8.50
2022-11-04T19:42:26.142Z,8.40
2022-11-04T19:44:58.084Z,8.40
2022-11-04T19:47:29.897Z,8.40
2022-11-04T19:50:01.863Z,8.40
2022-11-04T19:52:34.640Z,8.40
2022-11-04T19:55:07.389Z,8.40
2022-11-04T19:57:39.466Z,8.30
2022-11-04T20:00:12.172Z,8.30
2022-11-04T20:02:44.032Z,8.30
2022-11-04T20:05:15.999Z,8.30
2022-11-04T20:07:47.913Z,8.30
2022-11-04T20:10:21.854Z,8.20
2022-11-04T20:13:12.509Z,8.20
2022-11-04T20:15:46.566Z,8.20
2022-11-04T20:18:18.329Z,8.20
2022-11-04T20:20:50.136Z,8.20
2022-11-04T20:23:21.949Z,8.20
2022-11-04T20:25:53.957Z,8.20
2022-11-04T20:28:26.976Z,8.20
2022-11-04T20:30:59.096Z,8.20
2022-11-04T20:33:30.849Z,8.20
2022-11-04T20:36:05.281Z,8.10
2022-11-04T20:38:39.387Z,8.20
2022-11-04T20:41:15.535Z,8.20
2022-11-04T20:43:48.590Z,8.10
2022-11-04T20:46:24.970Z,8.20
2022-11-04T20:48:59.277Z,8.20
2022-11-04T20:51:34.325Z,8.10
2022-11-04T20:54:10.638Z,8.10
2022-11-04T20:56:44.189Z,8.10
2022-11-04T20:59:17.077Z,8.10
2022-11-04T21:01:50.339Z,8.10
2022-11-04T21:04:24.086Z,8.10
2022-11-04T21:06:58.287Z,8.10
2022-11-04T21:09:30.208Z,8.10
2022-11-04T21:12:02.161Z,8.10
2022-11-04T21:14:35.353Z,8.10
2022-11-04T21:17:07.263Z,8.20
2022-11-04T21:19:39.179Z,8.20
2022-11-04T21:22:18.175Z,8.20
2022-11-04T21:24:50.448Z,8.20
2022-11-04T21:27:22.797Z,8.20
2022-11-04T21:29:54.605Z,8.20
2022-11-04T21:32:26.560Z,8.20
2022-11-04T21:34:58.379Z,8.20
2022-11-04T21:37:33.579Z,8.20
2022-11-04T21:40:09.065Z,8.20
2022-11-04T21:42:41.394Z,8.20
2022-11-04T21:45:13.923Z,8.20
2022-11-04T21:47:45.720Z,8.20
2022-11-04T21:50:19.912Z,8.20
2022-11-04T21:52:51.676Z,8.20
2022-11-04T21:55:23.431Z,8.20
2022-11-04T21:57:55.208Z,8.20
2022-11-04T22:00:26.916Z,8.20
2022-11-04T22:02:58.673Z,8.20
2022-11-04T22:05:30.385Z,8.20
2022-11-04T22:08:16.939Z,8.20
2022-11-04T22:10:49.474Z,8.20
2022-11-04T22:13:22.058Z,8.20
2022-11-04T22:16:00.721Z,8.20
2022-11-04T22:18:33.063Z,8.20
2022-11-04T22:21:05.610Z,8.20
2022-11-04T22:23:37.803Z,8.20
2022-11-04T22:26:18.918Z,8.20
2022-11-04T22:28:54.256Z,8.20
2022-11-04T22:31:27.430Z,8.20
2022-11-04T22:33:59.953Z,8.20
2022-11-04T22:36:33.013Z,8.20
2022-11-04T22:39:05.711Z,8.20
2022-11-04T22:41:37.570Z,8.20
2022-11-04T22:44:09.570Z,8.20
2022-11-04T22:46:41.361Z,8.20
2022-11-04T22:49:14.536Z,8.20
2022-11-04T22:51:46.266Z,8.20
2022-11-04T22:54:20.241Z,8.20
2022-11-04T22:56:51.932Z,8.20
2022-11-04T22:59:23.799Z,8.10
2022-11-04T23:01:55.635Z,8.10
2022-11-04T23:04:27.443Z,8.10
2022-11-04T23:06:59.158Z,8.10
2022-11-04T23:09:32.016Z,8.10
2022-11-04T23:12:22.419Z,8.10
2022-11-04T23:15:12.555Z,8.10
2022-11-04T23:18:02.889Z,8.10
2022-11-04T23:20:34.618Z,8.10
2022-11-04T23:23:25.044Z,8.10
2022-11-04T23:25:56.812Z,8.10
2022-11-04T23:28:47.203Z,8.10
2022-11-04T23:31:18.971Z,8.10
2022-11-04T23:34:09.351Z,8.10
2022-11-04T23:37:02.269Z,8.10
2022-11-04T23:39:33.979Z,8.10
2022-11-04T23:42:17.964Z,8.10
2022-11-04T23:45:12.025Z,8.00
2022-11-04T23:48:03.485Z,8.00
2022-11-04T23:50:53.628Z,8.00
2022-11-04T23:53:43.856Z,8.00
2022-11-04T23:56:34.106Z,8.00
2022-11-04T23:59:26.201Z,8.00
